createdAt,value
2017-05-01T00:00:36.539Z,94609.14
2017-05-01T00:01:58.756Z,94607.02
2017-05-01T00:03:21.630Z,94607.08
2017-05-01T00:04:43.405Z,94603.7
2017-05-01T00:06:05.261Z,94606.2
2017-05-01T00:07:36.773Z,94608.95
2017-05-01T00:08:58.638Z,94607.67
2017-05-01T00:10:20.487Z,94608.68
2017-05-01T00:11:47.030Z,94605.34
2017-05-01T00:13:26.613Z,94602.34
2017-05-01T00:14:50.239Z,94596.07
2017-05-01T00:16:14.464Z,94595.67
2017-05-01T00:17:36.203Z,94590.77
2017-05-01T00:18:57.981Z,94594.52
2017-05-01T00:20:19.782Z,94595.19
2017-05-01T00:21:43.910Z,94593.27
2017-05-01T00:23:06.468Z,94592.55
2017-05-01T00:24:29.395Z,94588.78
2017-05-01T00:25:51.218Z,94586.25
2017-05-01T00:27:14.510Z,94591.34
2017-05-01T00:28:36.841Z,94587.08
2017-05-01T00:29:58.642Z,94587.38
2017-05-01T00:31:20.527Z,94592.89
2017-05-01T00:32:42.899Z,94586.89
2017-05-01T00:34:04.870Z,94578.7
2017-05-01T00:35:26.971Z,94584.48
2017-05-01T00:36:49.227Z,94582.56
2017-05-01T00:38:11.997Z,94583.02
2017-05-01T00:39:33.770Z,94580.11
2017-05-01T00:40:55.547Z,94575.48
2017-05-01T00:42:17.421Z,94569.83
2017-05-01T00:43:39.238Z,94568.88
2017-05-01T00:45:10.753Z,94568.19
2017-05-01T00:46:33.672Z,94567.51
2017-05-01T00:47:55.644Z,94564.75
2017-05-01T00:49:17.369Z,94563.62
2017-05-01T00:50:39.253Z,94562.63
2017-05-01T00:52:01.174Z,94559.84
2017-05-01T00:53:23.993Z,94560.16
2017-05-01T00:54:46.794Z,94558.9
2017-05-01T00:56:08.550Z,94560.06
2017-05-01T00:57:30.266Z,94557.95
2017-05-01T00:58:52.076Z,94558.47
2017-05-01T01:00:14.849Z,94559.58
2017-05-01T01:01:36.744Z,94560.17
2017-05-01T01:02:58.535Z,94557.77
2017-05-01T01:04:20.359Z,94559.15
2017-05-01T01:05:42.162Z,94559.64
2017-05-01T01:07:04.058Z,94559.11
2017-05-01T01:08:25.932Z,94557.16
2017-05-01T01:09:49.257Z,94558.44
2017-05-01T01:11:11.328Z,94557.48
2017-05-01T01:12:33.098Z,94552.81
2017-05-01T01:13:54.965Z,94556.66
2017-05-01T01:15:16.794Z,94558.27
2017-05-01T01:16:39.632Z,94554.76
2017-05-01T01:18:02.418Z,94560.96
2017-05-01T01:19:24.272Z,94552.94
2017-05-01T01:20:46.151Z,94555.84
2017-05-01T01:22:08.008Z,94554.05
2017-05-01T01:23:29.787Z,94552.56
2017-05-01T01:24:51.634Z,94552.99
2017-05-01T01:26:13.385Z,94554.88
2017-05-01T01:27:35.133Z,94552.66
2017-05-01T01:28:56.901Z,94549.16
2017-05-01T01:30:18.696Z,94547.86
2017-05-01T01:31:40.671Z,94548.43
2017-05-01T01:33:02.409Z,94547.75
2017-05-01T01:34:25.212Z,94547.88
2017-05-01T01:35:46.981Z,94541.39
2017-05-01T01:37:08.862Z,94542.03
2017-05-01T01:38:30.603Z,94543.06
2017-05-01T01:39:52.378Z,94548.85
2017-05-01T01:41:14.143Z,94551.55
2017-05-01T01:42:36.137Z,94550.23
2017-05-01T01:43:58.490Z,94549.9
2017-05-01T01:45:20.694Z,94547
2017-05-01T01:46:42.524Z,94544.98
2017-05-01T01:48:04.442Z,94546.3
2017-05-01T01:49:26.283Z,94550.97
2017-05-01T01:50:48.133Z,94551.61
2017-05-01T01:52:10.919Z,94555.35
2017-05-01T01:53:32.803Z,94554.88
2017-05-01T01:54:54.573Z,94558.87
2017-05-01T01:56:16.570Z,94557.98
2017-05-01T01:57:38.402Z,94557.98
2017-05-01T01:59:00.249Z,94555.18
2017-05-01T02:00:22.149Z,94553.5
2017-05-01T02:01:44.042Z,94551.5
2017-05-01T02:03:05.837Z,94549.77
2017-05-01T02:04:27.739Z,94550.52
2017-05-01T02:05:49.572Z,94543.8
2017-05-01T02:07:11.279Z,94552.59
2017-05-01T02:08:33.019Z,94556.42
2017-05-01T02:09:55.815Z,94555.39
2017-05-01T02:11:17.549Z,94557.6
2017-05-01T02:12:39.325Z,94553.75
2017-05-01T02:14:02.099Z,94557.66
2017-05-01T02:15:23.881Z,94554.94
2017-05-01T02:16:45.777Z,94554.23
2017-05-01T02:18:08.057Z,94555.39
2017-05-01T02:19:30.420Z,94557.02
2017-05-01T02:20:52.813Z,94564.86
2017-05-01T02:22:14.639Z,94564.3
2017-05-01T02:23:36.384Z,94572.48
2017-05-01T02:24:58.198Z,94571.34
2017-05-01T02:26:19.963Z,94574.44
2017-05-01T02:27:41.812Z,94572.17
2017-05-01T02:29:03.595Z,94571.91
2017-05-01T02:30:26.476Z,94572.98
2017-05-01T02:31:48.301Z,94567.76
2017-05-01T02:33:10.199Z,94570.95
2017-05-01T02:34:31.970Z,94572.47
2017-05-01T02:35:53.710Z,94569.93
2017-05-01T02:37:15.576Z,94570.23
2017-05-01T02:38:38.378Z,94568.84
2017-05-01T02:40:00.248Z,94571.39
2017-05-01T02:41:22.151Z,94573.98
2017-05-01T02:42:43.901Z,94577.48
2017-05-01T02:44:05.633Z,94577.83
2017-05-01T02:45:27.407Z,94581.45
2017-05-01T02:46:49.147Z,94580.8
2017-05-01T02:48:11.025Z,94571.92
2017-05-01T02:49:32.766Z,94571.3
2017-05-01T02:50:54.677Z,94575.5
2017-05-01T02:52:16.716Z,94581.73
2017-05-01T02:53:39.109Z,94584.68
2017-05-01T02:55:01.080Z,94584.04
2017-05-01T02:56:23.009Z,94578.65
2017-05-01T02:57:44.815Z,94581.25
2017-05-01T02:59:06.616Z,94579.61
2017-05-01T03:00:28.368Z,94577.08
2017-05-01T03:01:50.200Z,94576.98
2017-05-01T03:03:11.952Z,94573.77
2017-05-01T03:04:33.953Z,94572.92
2017-05-01T03:05:56.836Z,94569.51
2017-05-01T03:07:18.583Z,94570.97
2017-05-01T03:08:41.397Z,94568.19
2017-05-01T03:10:03.343Z,94565.43
2017-05-01T03:11:25.219Z,94561.53
2017-05-01T03:12:46.990Z,94558.7
2017-05-01T03:14:08.772Z,94560.06
2017-05-01T03:15:30.566Z,94556.95
2017-05-01T03:16:52.393Z,94557.42
2017-05-01T03:18:14.137Z,94562.97
2017-05-01T03:19:36.030Z,94566.31
2017-05-01T03:20:57.876Z,94567.01
2017-05-01T03:22:19.650Z,94568.12
2017-05-01T03:23:41.423Z,94572.7
2017-05-01T03:25:03.243Z,94580.53
2017-05-01T03:26:25.244Z,94581.56
2017-05-01T03:27:47.428Z,94587.6
2017-05-01T03:29:09.488Z,94583.88
2017-05-01T03:30:31.252Z,94571.45
2017-05-01T03:31:53.083Z,94573.56
2017-05-01T03:33:15.911Z,94576.33
2017-05-01T03:34:37.669Z,94577.89
2017-05-01T03:35:59.564Z,94584.19
2017-05-01T03:37:21.402Z,94582.45
2017-05-01T03:38:43.277Z,94582.84
2017-05-01T03:40:05.038Z,94584.24
2017-05-01T03:41:26.793Z,94586.45
2017-05-01T03:42:48.668Z,94595.59
2017-05-01T03:44:10.526Z,94600.67
2017-05-01T03:45:33.334Z,94605.97
2017-05-01T03:46:55.103Z,94605.16
2017-05-01T03:48:17.044Z,94605.48
2017-05-01T03:49:38.814Z,94601.77
2017-05-01T03:51:00.694Z,94604.24
2017-05-01T03:52:22.472Z,94602.63
2017-05-01T03:53:44.346Z,94609.59
2017-05-01T03:55:06.099Z,94609.12
2017-05-01T03:56:27.840Z,94608.64
2017-05-01T03:57:49.614Z,94611.31
2017-05-01T03:59:11.493Z,94617.7
2017-05-01T04:00:35.317Z,94622.16
2017-05-01T04:01:57.461Z,94620.14
2017-05-01T04:03:20.561Z,94613.09
2017-05-01T04:04:42.391Z,94613.08
2017-05-01T04:06:04.180Z,94611.47
2017-05-01T04:07:26.054Z,94608.02
2017-05-01T04:08:47.790Z,94610.64
2017-05-01T04:10:09.697Z,94609.82
2017-05-01T04:11:31.468Z,94609.97
2017-05-01T04:12:53.316Z,94609.86
2017-05-01T04:14:16.102Z,94611.13
2017-05-01T04:15:47.643Z,94607
2017-05-01T04:17:09.413Z,94601.26
2017-05-01T04:18:31.209Z,94591.45
2017-05-01T04:19:52.976Z,94593.68
2017-05-01T04:21:14.847Z,94591.27
2017-05-01T04:22:36.635Z,94600.09
2017-05-01T04:23:58.589Z,94599.38
2017-05-01T04:25:20.379Z,94601.45
2017-05-01T04:26:42.216Z,94605.58
2017-05-01T04:28:04.105Z,94606.13
2017-05-01T04:29:25.855Z,94605.81
2017-05-01T04:30:47.734Z,94608.53
2017-05-01T04:32:09.579Z,94614.22
2017-05-01T04:33:31.365Z,94615.18
2017-05-01T04:34:53.227Z,94615.89
2017-05-01T04:36:15.211Z,94617.89
2017-05-01T04:37:37.326Z,94615.74
2017-05-01T04:38:59.522Z,94609.8
2017-05-01T04:40:21.298Z,94612.34
2017-05-01T04:41:43.098Z,94604.37
2017-05-01T04:43:04.951Z,94607.33
2017-05-01T04:44:26.807Z,94610.84
2017-05-01T04:45:48.560Z,94614.35
2017-05-01T04:47:10.314Z,94607.28
2017-05-01T04:48:32.189Z,94605.92
2017-05-01T04:49:54.577Z,94602.91
2017-05-01T04:51:16.442Z,94601.66
2017-05-01T04:52:38.275Z,94597.77
2017-05-01T04:54:00.166Z,94601.25
2017-05-01T04:55:22.031Z,94596.34
2017-05-01T04:56:44.813Z,94601.16
2017-05-01T04:58:06.632Z,94602.23
2017-05-01T04:59:28.464Z,94599.61
2017-05-01T05:00:50.266Z,94599.44
2017-05-01T05:02:12.037Z,94601.89
2017-05-01T05:03:33.917Z,94596.02
2017-05-01T05:04:55.764Z,94598.42
2017-05-01T05:06:17.578Z,94600.72
2017-05-01T05:07:41.403Z,94608.23
2017-05-01T05:09:03.271Z,94611.3
2017-05-01T05:10:25.249Z,94614.61
2017-05-01T05:11:47.287Z,94614.19
2017-05-01T05:13:09.317Z,94605.94
2017-05-01T05:14:31.552Z,94604.45
2017-05-01T05:15:53.308Z,94603.57
2017-05-01T05:17:15.062Z,94605.55
2017-05-01T05:20:08.527Z,94616.44
2017-05-01T05:21:30.385Z,94618.33
2017-05-01T05:22:52.160Z,94614.32
2017-05-01T05:24:13.966Z,94611.77
2017-05-01T05:25:35.834Z,94607.67
2017-05-01T05:26:57.679Z,94605.3
2017-05-01T05:28:19.523Z,94605.03
2017-05-01T05:29:41.413Z,94603.16
2017-05-01T05:31:03.244Z,94607.35
2017-05-01T05:32:25.047Z,94612.33
2017-05-01T05:33:46.890Z,94612.16
2017-05-01T05:35:08.759Z,94617.72
2017-05-01T05:36:31.761Z,94618.09
2017-05-01T05:37:54.599Z,94616.19
2017-05-01T05:39:16.999Z,94618.22
2017-05-01T05:40:39.571Z,94616.7
2017-05-01T05:42:01.693Z,94621.36
2017-05-01T05:43:23.535Z,94629.45
2017-05-01T05:44:48.668Z,94630.11
2017-05-01T05:46:18.627Z,94634.56
2017-05-01T05:47:40.978Z,94636.25
2017-05-01T05:49:03.094Z,94638.86
2017-05-01T05:50:25.020Z,94632.09
2017-05-01T05:51:47.110Z,94631.81
2017-05-01T05:53:08.943Z,94633.41
2017-05-01T05:54:30.760Z,94635.92
2017-05-01T05:55:52.619Z,94637.39
2017-05-01T05:57:14.609Z,94638.09
2017-05-01T05:58:36.379Z,94640.73
2017-05-01T05:59:59.281Z,94642.81
2017-05-01T06:01:21.041Z,94645.95
2017-05-01T06:02:42.882Z,94646.55
2017-05-01T06:04:04.725Z,94650.76
2017-05-01T06:05:26.515Z,94653.21
2017-05-01T06:06:48.260Z,94656.97
2017-05-01T06:08:10.049Z,94657.92
2017-05-01T06:09:31.892Z,94657.7
2017-05-01T06:10:53.754Z,94655.28
2017-05-01T06:12:15.624Z,94657.69
2017-05-01T06:13:37.842Z,94658.13
2017-05-01T06:14:59.774Z,94659.34
2017-05-01T06:16:22.664Z,94659.79
2017-05-01T06:17:44.554Z,94657.64
2017-05-01T06:19:06.392Z,94662.25
2017-05-01T06:20:28.164Z,94662.19
2017-05-01T06:21:50.126Z,94659
2017-05-01T06:23:12.784Z,94666.02
2017-05-01T06:24:38.222Z,94673.42
2017-05-01T06:26:07.574Z,94674.27
2017-05-01T06:27:30.706Z,94677.51
2017-05-01T06:28:54.697Z,94684.2
2017-05-01T06:30:20.970Z,94685.72
2017-05-01T06:31:42.761Z,94687.02
2017-05-01T06:33:08.834Z,94682.81
2017-05-01T06:34:30.657Z,94684.12
2017-05-01T06:35:52.409Z,94685.72
2017-05-01T06:37:38.905Z,94686.98
2017-05-01T06:39:06.557Z,94690.89
2017-05-01T06:40:28.430Z,94691.59
2017-05-01T06:41:50.308Z,94694.02
2017-05-01T06:43:12.180Z,94698.98
2017-05-01T06:44:40.085Z,94701.24
2017-05-01T06:46:04.525Z,94706.88
2017-05-01T06:47:34.177Z,94704.95
2017-05-01T06:48:59.075Z,94704.69
2017-05-01T06:50:20.987Z,94701.23
2017-05-01T06:51:42.789Z,94698.91
2017-05-01T06:53:04.629Z,94699.66
2017-05-01T06:54:27.275Z,94704.36
2017-05-01T06:55:49.269Z,94706.83
2017-05-01T06:57:11.188Z,94710.77
2017-05-01T06:58:32.986Z,94709
2017-05-01T06:59:55.318Z,94714.98
2017-05-01T07:01:17.600Z,94722.98
2017-05-01T07:02:43.471Z,94722.32
2017-05-01T07:04:05.316Z,94722.82
2017-05-01T07:05:27.332Z,94723.94
2017-05-01T07:06:49.268Z,94726.28
2017-05-01T07:08:11.463Z,94724.54
2017-05-01T07:09:33.326Z,94735.16
2017-05-01T07:10:55.086Z,94725.67
2017-05-01T07:12:16.950Z,94727.73
2017-05-01T07:13:38.829Z,94729.19
2017-05-01T07:15:00.688Z,94738.46
2017-05-01T07:16:22.548Z,94735.22
2017-05-01T07:17:44.439Z,94736.94
2017-05-01T07:19:06.352Z,94737.64
2017-05-01T07:20:28.106Z,94733.61
2017-05-01T07:21:49.926Z,94741.91
2017-05-01T07:23:11.860Z,94741.84
2017-05-01T07:24:33.956Z,94742.2
2017-05-01T07:25:56.085Z,94746.97
2017-05-01T07:27:18.191Z,94756.38
2017-05-01T07:28:40.446Z,94756.36
2017-05-01T07:30:03.321Z,94758.53
2017-05-01T07:31:25.219Z,94758.6
2017-05-01T07:32:47.214Z,94753.86
2017-05-01T07:34:09.446Z,94762.27
2017-05-01T07:35:32.560Z,94770.42
2017-05-01T07:36:54.658Z,94768.27
2017-05-01T07:38:17.048Z,94784.26
2017-05-01T07:39:39.068Z,94779.84
2017-05-01T07:41:00.880Z,94785.27
2017-05-01T07:42:25.607Z,94784.86
2017-05-01T07:43:47.571Z,94785.73
2017-05-01T07:45:10.053Z,94784.24
2017-05-01T07:46:31.909Z,94792.58
2017-05-01T07:47:53.876Z,94797.92
2017-05-01T07:49:15.744Z,94802.06
2017-05-01T07:50:37.956Z,94796.67
2017-05-01T07:51:59.747Z,94800.02
2017-05-01T07:53:21.607Z,94796.57
2017-05-01T07:54:43.428Z,94805.08
2017-05-01T07:56:05.237Z,94803.99
2017-05-01T07:57:27.188Z,94808.83
2017-05-01T07:58:50.150Z,94806.84
2017-05-01T08:00:12.005Z,94820.67
2017-05-01T08:01:33.889Z,94814.03
2017-05-01T08:02:55.644Z,94816.25
2017-05-01T08:04:17.513Z,94818.64
2017-05-01T08:05:39.408Z,94814.45
2017-05-01T08:07:01.227Z,94820.33
2017-05-01T08:08:23.114Z,94817.72
2017-05-01T08:09:45.029Z,94822.05
2017-05-01T08:11:07.351Z,94829.7
2017-05-01T08:12:29.532Z,94832.78
2017-05-01T08:13:51.407Z,94840.16
2017-05-01T08:15:13.268Z,94840.72
2017-05-01T08:16:35.131Z,94840.7
2017-05-01T08:17:57.056Z,94831.74
2017-05-01T08:19:18.967Z,94834.14
2017-05-01T08:20:40.847Z,94838
2017-05-01T08:22:02.706Z,94837.23
2017-05-01T08:34:49.323Z,94862.39
2017-05-01T08:36:11.132Z,94853.67
2017-05-01T08:37:33.061Z,94852.98
2017-05-01T08:38:54.832Z,94859.51
2017-05-01T08:40:16.763Z,94852.61
2017-05-01T08:41:38.592Z,94857.9
2017-05-01T08:43:04.660Z,94860.62
2017-05-01T08:44:37.125Z,94863.16
2017-05-01T08:49:30.901Z,94865.2
2017-05-01T08:50:52.784Z,94862.6
2017-05-01T08:52:14.639Z,94862
2017-05-01T08:53:36.499Z,94859.2
2017-05-01T08:55:07.930Z,94863.31
2017-05-01T08:56:30.079Z,94862.58
2017-05-01T08:57:53.656Z,94865.13
2017-05-01T08:59:19.154Z,94867.28
2017-05-01T09:00:40.978Z,94861.63
2017-05-01T09:02:02.828Z,94866.14
2017-05-01T09:03:24.643Z,94872.8
2017-05-01T09:04:46.496Z,94866.41
2017-05-01T09:06:08.354Z,94869.42
2017-05-01T09:07:30.131Z,94876.92
2017-05-01T09:08:51.952Z,94877.61
2017-05-01T09:33:19.658Z,94886.19
2017-05-01T09:34:41.562Z,94887.1
2017-05-01T09:36:12.828Z,94894.16
2017-05-01T09:38:10.058Z,94893.41
2017-05-01T09:39:59.331Z,94896.8
2017-05-01T09:41:22.609Z,94892.64
2017-05-01T09:43:07.031Z,94895.21
2017-05-01T09:44:57.050Z,94897.28
2017-05-01T09:46:39.958Z,94906.41
2017-05-01T09:48:01.839Z,94906.7
2017-05-01T09:49:23.689Z,94906.89
2017-05-01T09:50:45.456Z,94906.56
2017-05-01T09:52:07.229Z,94907.16
2017-05-01T09:53:29.091Z,94910.2
2017-05-01T09:54:50.942Z,94906.06
2017-05-01T09:56:12.853Z,94912.21
2017-05-01T09:57:34.666Z,94911.16
2017-05-01T09:58:56.446Z,94907.65
2017-05-01T10:00:18.318Z,94907.39
2017-05-01T10:11:59.154Z,94923.53
2017-05-01T10:13:21.083Z,94923.36
2017-05-01T10:14:44.739Z,94924.78
2017-05-01T10:16:06.647Z,94928.65
2017-05-01T10:17:33.599Z,94926.14
2017-05-01T10:19:19.032Z,94932.95
2017-05-01T10:20:40.782Z,94927.11
2017-05-01T10:22:02.652Z,94918.38
2017-05-01T10:23:24.525Z,94920.53
2017-05-01T10:24:46.386Z,94918.67
2017-05-01T10:26:08.155Z,94920.2
2017-05-01T10:27:29.999Z,94918.77
2017-05-01T10:28:51.781Z,94917.33
2017-05-01T10:30:13.520Z,94918.59
2017-05-01T10:31:35.297Z,94907.61
2017-05-01T10:32:57.110Z,94912.12
2017-05-01T10:35:50.553Z,94918.2
2017-05-01T10:37:12.392Z,94915.14
2017-05-01T10:38:34.292Z,94914.59
2017-05-01T10:39:56.390Z,94916.77
2017-05-01T10:41:18.208Z,94902.11
2017-05-01T10:42:40.072Z,94896.03
2017-05-01T10:44:01.835Z,94906.1
2017-05-01T10:45:23.714Z,94906.91
2017-05-01T10:46:45.584Z,94906.43
2017-05-01T10:48:07.438Z,94907.81
2017-05-01T10:49:29.209Z,94901.43
2017-05-01T10:50:51.079Z,94915.44
2017-05-01T10:52:12.836Z,94918.84
2017-05-01T10:53:34.704Z,94919.97
2017-05-01T10:54:56.571Z,94921.5
2017-05-01T10:56:18.425Z,94922.47
2017-05-01T10:57:40.295Z,94925.56
2017-05-01T10:59:02.261Z,94921.48
2017-05-01T11:00:24.139Z,94915.05
2017-05-01T11:01:46.104Z,94911.32
2017-05-01T11:03:07.964Z,94912.57
2017-05-01T11:04:29.821Z,94910.84
2017-05-01T11:05:51.722Z,94915.19
2017-05-01T11:07:13.786Z,94931.11
2017-05-01T11:08:35.570Z,94926.81
2017-05-01T11:09:57.559Z,94936.2
2017-05-01T11:11:20.435Z,94946.78
2017-05-01T11:12:42.482Z,94936.21
2017-05-01T11:14:04.249Z,94938.03
2017-05-01T11:15:26.212Z,94951.5
2017-05-01T11:16:47.998Z,94956.66
2017-05-01T11:18:09.855Z,94965.33
2017-05-01T11:19:31.821Z,94957.09
2017-05-01T11:20:53.677Z,94955.13
2017-05-01T11:22:15.523Z,94967.02
2017-05-01T11:23:37.578Z,94969.84
2017-05-01T11:25:00.344Z,94975.16
2017-05-01T11:26:22.181Z,94974.94
2017-05-01T11:27:44.047Z,94986.41
2017-05-01T11:29:05.906Z,94986.52
2017-05-01T11:30:27.668Z,94992.47
2017-05-01T11:31:49.544Z,94996.02
2017-05-01T11:33:11.304Z,94997.8
2017-05-01T11:34:33.135Z,94996.97
2017-05-01T11:35:54.899Z,95002.33
2017-05-01T11:37:16.683Z,94995.38
2017-05-01T11:38:48.276Z,94999.59
2017-05-01T11:40:10.084Z,94998.36
2017-05-01T11:41:31.853Z,95002.32
2017-05-01T11:42:53.676Z,95011.38
2017-05-01T11:44:15.526Z,95011.4
2017-05-01T11:45:37.391Z,95011.21
2017-05-01T11:46:59.274Z,95013.15
2017-05-01T11:48:21.124Z,95016.83
2017-05-01T11:49:43.205Z,95033.09
2017-05-01T11:51:05.036Z,95016.18
2017-05-01T11:52:26.839Z,95023.49
2017-05-01T11:53:48.705Z,95015.64
2017-05-01T11:55:10.716Z,95018.47
2017-05-01T11:56:32.542Z,95015.19
2017-05-01T11:57:54.395Z,95017.83
2017-05-01T11:59:16.323Z,95025.25
2017-05-01T12:00:38.131Z,95024.22
2017-05-01T12:02:00.116Z,95024.03
2017-05-01T12:03:22.007Z,95021.58
2017-05-01T12:04:43.938Z,95015.87
2017-05-01T12:06:05.688Z,95019.97
2017-05-01T12:07:27.686Z,95023.36
2017-05-01T12:10:21.150Z,95020.73
2017-05-01T12:11:43.008Z,95029.63
2017-05-01T12:13:05.280Z,95034.2
2017-05-01T12:14:27.179Z,95034.08
2017-05-01T12:15:50.036Z,95030.19
2017-05-01T12:17:11.932Z,95038.39
2017-05-01T12:18:33.757Z,95049.61
2017-05-01T12:19:55.528Z,95047.3
2017-05-01T12:21:17.334Z,95043.94
2017-05-01T12:22:39.255Z,95049.3
2017-05-01T12:24:01.149Z,95051.05
2017-05-01T12:25:22.998Z,95046.64
2017-05-01T12:26:44.763Z,95047.48
2017-05-01T12:28:06.637Z,95052.78
2017-05-01T12:29:28.513Z,95049.07
2017-05-01T12:30:50.399Z,95048.28
2017-05-01T12:32:12.348Z,95048.78
2017-05-01T12:33:34.210Z,95050.02
2017-05-01T12:34:56.137Z,95046.8
2017-05-01T12:36:18.038Z,95049.8
2017-05-01T12:37:39.903Z,95049.5
2017-05-01T12:39:01.650Z,95051.28
2017-05-01T12:40:23.534Z,95054.27
2017-05-01T12:41:45.319Z,95061.4
2017-05-01T12:43:07.162Z,95061.84
2017-05-01T12:44:28.927Z,95064.53
2017-05-01T12:45:50.897Z,95068.78
2017-05-01T12:47:12.660Z,95068.31
2017-05-01T12:48:34.417Z,95070.56
2017-05-01T12:49:56.213Z,95075.81
2017-05-01T12:51:18.078Z,95071.79
2017-05-01T12:52:40.046Z,95074.53
2017-05-01T12:54:01.999Z,95079.68
2017-05-01T12:55:23.869Z,95077.67
2017-05-01T12:56:45.730Z,95081.15
2017-05-01T12:58:07.696Z,95079.04
2017-05-01T12:59:29.595Z,95091.38
2017-05-01T13:00:51.414Z,95098.72
2017-05-01T13:02:13.486Z,95094.59
2017-05-01T13:03:35.478Z,95098.88
2017-05-01T13:04:57.316Z,95101.31
2017-05-01T13:06:19.102Z,95107.09
2017-05-01T13:07:41.076Z,95104.59
2017-05-01T13:09:03.038Z,95109.75
2017-05-01T13:10:24.906Z,95113.09
2017-05-01T13:11:46.782Z,95109.98
2017-05-01T13:13:08.657Z,95115.43
2017-05-01T13:14:30.525Z,95112.25
2017-05-01T13:15:52.360Z,95112.41
2017-05-01T13:17:15.269Z,95114.22
2017-05-01T13:18:37.071Z,95112.78
2017-05-01T13:19:58.983Z,95117.23
2017-05-01T13:21:20.769Z,95117.72
2017-05-01T13:22:42.748Z,95120.9
2017-05-01T13:24:04.600Z,95124.26
2017-05-01T13:25:26.406Z,95125.56
2017-05-01T13:26:48.239Z,95128.66
2017-05-01T13:28:10.097Z,95142.41
2017-05-01T13:29:31.969Z,95133.63
2017-05-01T13:30:53.731Z,95139.13
2017-05-01T13:32:15.549Z,95139.47
2017-05-01T13:33:37.459Z,95141.27
2017-05-01T13:34:59.334Z,95140.08
2017-05-01T13:36:21.196Z,95140.44
2017-05-01T13:37:43.059Z,95146.59
2017-05-01T13:39:04.935Z,95145.13
2017-05-01T13:40:26.873Z,95149.95
2017-05-01T13:41:48.672Z,95154.66
2017-05-01T13:43:10.453Z,95167.66
2017-05-01T13:44:32.372Z,95159.47
2017-05-01T13:45:54.146Z,95160.44
2017-05-01T13:47:16.018Z,95172.06
2017-05-01T13:48:37.886Z,95169.84
2017-05-01T13:49:59.741Z,95172.59
2017-05-01T13:51:21.636Z,95165.79
2017-05-01T13:52:43.508Z,95178.67
2017-05-01T13:54:09.754Z,95175
2017-05-01T13:55:31.631Z,95187.22
2017-05-01T13:56:53.602Z,95180.92
2017-05-01T13:58:15.410Z,95178.22
2017-05-01T13:59:37.222Z,95184.78
2017-05-01T14:00:59.063Z,95187.2
2017-05-01T14:02:21.152Z,95190.42
2017-05-01T14:03:43.014Z,95195.3
2017-05-01T14:05:04.906Z,95194
2017-05-01T14:06:26.770Z,95202.76
2017-05-01T14:07:48.674Z,95210.24
2017-05-01T14:09:10.598Z,95210.05
2017-05-01T14:10:32.465Z,95219.16
2017-05-01T14:11:54.369Z,95213.94
2017-05-01T14:13:16.206Z,95213.8
2017-05-01T14:14:39.106Z,95223.8
2017-05-01T14:16:00.952Z,95220.85
2017-05-01T14:17:22.782Z,95232.72
2017-05-01T14:18:44.710Z,95223.72
2017-05-01T14:20:06.499Z,95228.29
2017-05-01T14:21:28.327Z,95235.98
2017-05-01T14:22:50.298Z,95234.46
2017-05-01T14:24:12.161Z,95236.42
2017-05-01T14:25:34.925Z,95239.38
2017-05-01T14:26:56.812Z,95231.61
2017-05-01T14:28:18.685Z,95238.96
2017-05-01T14:29:40.449Z,95239.86
2017-05-01T14:31:02.314Z,95245.89
2017-05-01T14:32:24.149Z,95249.12
2017-05-01T14:33:46.043Z,95242.48
2017-05-01T14:35:07.981Z,95249.54
2017-05-01T14:36:29.768Z,95249.68
2017-05-01T14:37:51.645Z,95250.59
2017-05-01T14:39:13.512Z,95254.59
2017-05-01T14:40:37.657Z,95257.52
2017-05-01T14:41:59.544Z,95270.91
2017-05-01T14:43:21.433Z,95255.2
2017-05-01T14:44:45.305Z,95261.2
2017-05-01T14:46:10.509Z,95255.8
2017-05-01T14:47:33.419Z,95265.19
2017-05-01T14:48:55.310Z,95252.67
2017-05-01T14:50:17.162Z,95266.63
2017-05-01T14:51:39.122Z,95266.47
2017-05-01T14:53:00.978Z,95271.86
2017-05-01T14:54:22.851Z,95269.86
2017-05-01T14:55:44.866Z,95268.37
2017-05-01T14:57:06.801Z,95270.5
2017-05-01T14:58:28.693Z,95271.04
2017-05-01T14:59:50.627Z,95275.62
2017-05-01T15:01:12.372Z,95279.03
2017-05-01T15:02:34.258Z,95276.03
2017-05-01T15:03:56.122Z,95278.67
2017-05-01T15:05:17.999Z,95283.29
2017-05-01T15:06:39.857Z,95282.49
2017-05-01T15:08:01.904Z,95283.04
2017-05-01T15:09:23.874Z,95274.94
2017-05-01T15:10:45.768Z,95283.42
2017-05-01T15:12:07.528Z,95284.61
2017-05-01T15:13:30.644Z,95279.99
2017-05-01T15:14:52.538Z,95280.26
2017-05-01T15:16:14.546Z,95282.81
2017-05-01T15:17:36.436Z,95287.31
2017-05-01T15:18:58.516Z,95285.95
2017-05-01T15:20:20.472Z,95283.72
2017-05-01T15:21:42.476Z,95284.85
2017-05-01T15:23:04.423Z,95285
2017-05-01T15:24:26.924Z,95282.52
2017-05-01T15:26:58.978Z,95290.55
2017-05-01T15:28:21.862Z,95287.45
2017-05-01T15:29:43.722Z,95295.81
2017-05-01T15:31:05.605Z,95292.84
2017-05-01T15:32:27.396Z,95292.08
2017-05-01T15:33:49.294Z,95292.99
2017-05-01T15:35:11.230Z,95298.55
2017-05-01T15:36:33.049Z,95291.66
2017-05-01T15:37:54.839Z,95292.61
2017-05-01T15:39:16.656Z,95291.37
2017-05-01T15:40:39.577Z,95297.64
2017-05-01T15:42:01.532Z,95291.15
2017-05-01T15:43:23.404Z,95293.32
2017-05-01T15:44:45.266Z,95291.03
2017-05-01T15:46:08.047Z,95292.74
2017-05-01T15:47:29.912Z,95287.09
2017-05-01T15:48:51.792Z,95285.91
2017-05-01T15:50:14.688Z,95293.88
2017-05-01T15:51:36.518Z,95284.54
2017-05-01T15:52:58.418Z,95289.75
2017-05-01T15:54:21.583Z,95292.77
2017-05-01T15:55:43.581Z,95284.47
2017-05-01T15:57:06.470Z,95286.06
2017-05-01T15:58:28.371Z,95286.98
2017-05-01T15:59:50.532Z,95289.95
2017-05-01T16:01:13.532Z,95287.14
2017-05-01T16:02:35.864Z,95296.53
2017-05-01T16:03:58.873Z,95297.7
2017-05-01T16:05:20.854Z,95292.87
2017-05-01T16:06:42.738Z,95296.13
2017-05-01T16:08:04.716Z,95298.66
2017-05-01T16:09:26.553Z,95307.38
2017-05-01T16:10:48.500Z,95301.38
2017-05-01T16:12:10.398Z,95305.34
2017-05-01T16:13:32.325Z,95301.66
2017-05-01T16:14:54.209Z,95313.77
2017-05-01T16:16:17.113Z,95306.37
2017-05-01T16:17:38.978Z,95308.67
2017-05-01T16:19:00.834Z,95309.57
2017-05-01T16:20:22.616Z,95315.81
2017-05-01T16:21:44.475Z,95309.8
2017-05-01T16:23:06.232Z,95310.45
2017-05-01T16:24:30.149Z,95319.59
2017-05-01T16:25:51.999Z,95317.05
2017-05-01T16:27:17.160Z,95317.62
2017-05-01T16:28:39.000Z,95318.08
2017-05-01T16:30:00.903Z,95317.33
2017-05-01T16:31:22.880Z,95317.49
2017-05-01T16:32:44.741Z,95324.3
2017-05-01T16:34:06.696Z,95318.17
2017-05-01T16:35:28.536Z,95318.05
2017-05-01T16:36:50.286Z,95320.94
2017-05-01T16:38:12.058Z,95313.75
2017-05-01T16:39:33.996Z,95308.37
2017-05-01T16:40:56.940Z,95309.6
2017-05-01T16:42:18.820Z,95313.82
2017-05-01T16:43:42.641Z,95317.91
2017-05-01T16:45:04.535Z,95318.53
2017-05-01T16:46:26.365Z,95320.81
2017-05-01T16:47:49.389Z,95319.72
2017-05-01T16:49:11.213Z,95315.98
2017-05-01T16:50:33.284Z,95315.01
2017-05-01T16:51:55.357Z,95318.81
2017-05-01T16:53:17.257Z,95315.97
2017-05-01T16:54:39.090Z,95320.4
2017-05-01T16:56:00.908Z,95325.98
2017-05-01T16:57:22.728Z,95324.14
2017-05-01T16:58:44.534Z,95321.27
2017-05-01T17:00:06.348Z,95316.92
2017-05-01T17:01:28.249Z,95316.62
2017-05-01T17:02:50.104Z,95316.22
2017-05-01T17:04:12.987Z,95323.13
2017-05-01T17:05:35.851Z,95322.98
2017-05-01T17:06:57.639Z,95324.77